createdAt,value
2018-12-11T00:00:02.519Z,1
2018-12-11T00:05:03.337Z,0
2018-12-11T00:10:02.945Z,0
2018-12-11T00:15:02.716Z,0
2018-12-11T00:20:03.245Z,1
2018-12-11T00:25:02.682Z,0
2018-12-11T00:30:03.114Z,1
2018-12-11T00:35:02.763Z,1
2018-12-11T00:40:03.343Z,0
2018-12-11T00:45:02.808Z,1
2018-12-11T00:50:03.240Z,1
2018-12-11T00:55:02.691Z,1
2018-12-11T01:00:03.071Z,1
2018-12-11T01:05:02.423Z,0
2018-12-11T01:10:02.888Z,1
2018-12-11T01:15:03.352Z,1
2018-12-11T01:20:02.876Z,1
2018-12-11T01:25:02.377Z,0
2018-12-11T01:30:02.855Z,1
2018-12-11T01:35:03.340Z,1
2018-12-11T01:40:02.781Z,0
2018-12-11T01:45:03.309Z,1
2018-12-11T01:50:02.744Z,1
2018-12-11T01:55:03.214Z,0
2018-12-11T02:00:02.626Z,1
2018-12-11T02:05:03.216Z,1
2018-12-11T02:10:02.779Z,1
2018-12-11T02:15:03.197Z,1
2018-12-11T02:20:02.664Z,1
2018-12-11T02:25:03.040Z,1
2018-12-11T02:30:02.437Z,1
2018-12-11T02:35:03.053Z,0
2018-12-11T02:40:02.544Z,0
2018-12-11T02:45:03.050Z,1
2018-12-11T02:50:02.477Z,1
2018-12-11T02:55:02.940Z,0
2018-12-11T03:00:03.361Z,1
2018-12-11T03:05:02.772Z,1
2018-12-11T03:10:02.381Z,0
2018-12-11T03:15:02.898Z,1
2018-12-11T03:20:02.500Z,1
2018-12-11T03:25:02.968Z,1
2018-12-11T03:30:02.402Z,0
2018-12-11T03:35:02.900Z,1
2018-12-11T03:40:02.438Z,1
2018-12-11T03:45:02.885Z,1
2018-12-11T03:50:02.388Z,1
2018-12-11T03:55:02.917Z,1
2018-12-11T04:00:02.477Z,0
2018-12-11T04:05:02.917Z,0
2018-12-11T04:10:02.402Z,0
2018-12-11T04:15:02.878Z,0
2018-12-11T04:20:03.367Z,1
2018-12-11T04:25:02.810Z,1
2018-12-11T04:30:03.270Z,1
2018-12-11T04:35:02.708Z,1
2018-12-11T04:40:03.181Z,1
2018-12-11T04:45:02.696Z,1
2018-12-11T04:50:03.124Z,1
2018-12-11T04:55:02.576Z,1
2018-12-11T05:00:03.294Z,1
2018-12-11T05:05:02.785Z,1
2018-12-11T05:10:03.326Z,1
2018-12-11T05:15:02.765Z,1
2018-12-11T05:20:03.334Z,1
2018-12-11T05:25:02.730Z,1
2018-12-11T05:30:02.649Z,1
2018-12-11T05:35:03.176Z,1
2018-12-11T05:40:02.602Z,1
2018-12-11T05:45:03.030Z,1
2018-12-11T05:50:02.436Z,1
2018-12-11T05:55:02.879Z,1
2018-12-11T06:00:03.274Z,1
2018-12-11T06:05:02.727Z,1
2018-12-11T06:10:03.062Z,1
2018-12-11T06:15:02.579Z,1
2018-12-11T06:20:03.043Z,1
2018-12-11T06:25:02.711Z,1
2018-12-11T06:30:02.409Z,1
2018-12-11T06:35:02.917Z,1
2018-12-11T06:40:02.462Z,1
2018-12-11T06:45:02.954Z,2
2018-12-11T06:50:02.449Z,2
2018-12-11T06:55:02.966Z,3
2018-12-11T07:00:02.561Z,7
2018-12-11T07:05:03.102Z,12
2018-12-11T07:10:02.600Z,26
2018-12-11T07:15:03.058Z,39
2018-12-11T07:20:02.528Z,51
2018-12-11T07:25:02.970Z,62
2018-12-11T07:30:03.320Z,87
2018-12-11T07:35:02.730Z,138
2018-12-11T07:40:03.193Z,268
2018-12-11T07:45:02.667Z,338
2018-12-11T07:50:03.077Z,470
2018-12-11T07:55:02.442Z,530
2018-12-11T08:00:02.882Z,610
2018-12-11T08:05:03.282Z,655
2018-12-11T08:10:03.190Z,796
2018-12-11T08:15:02.725Z,913
2018-12-11T08:20:03.152Z,1000
2018-12-11T08:25:02.637Z,1000
2018-12-11T08:30:03.234Z,1000
2018-12-11T08:35:02.743Z,1000
2018-12-11T08:40:03.358Z,2000
2018-12-11T08:45:02.768Z,2000
2018-12-11T08:50:03.133Z,3000
2018-12-11T08:55:02.570Z,1000
2018-12-11T09:00:03.048Z,1000
2018-12-11T09:05:02.525Z,1000
2018-12-11T09:10:03.047Z,14000
2018-12-11T09:15:02.537Z,15000
2018-12-11T09:20:02.996Z,17000
2018-12-11T09:25:02.414Z,18000
2018-12-11T09:30:02.991Z,15000
2018-12-11T09:35:02.499Z,20000
2018-12-11T09:40:03.026Z,14000
2018-12-11T09:45:02.548Z,20000
2018-12-11T09:50:02.906Z,20000
2018-12-11T09:55:03.357Z,20000
2018-12-11T10:00:02.917Z,21000
2018-12-11T10:05:03.273Z,21000
2018-12-11T10:10:02.772Z,22000
2018-12-11T10:15:03.245Z,4000
2018-12-11T10:20:02.602Z,3000
2018-12-11T10:25:02.977Z,3000
2018-12-11T10:30:02.358Z,5000
2018-12-11T10:35:02.813Z,4000
2018-12-11T10:40:03.308Z,3000
2018-12-11T10:45:03.018Z,3000
2018-12-11T10:50:02.501Z,3000
2018-12-11T10:55:03.025Z,3000
2018-12-11T11:00:02.512Z,5000
2018-12-11T11:05:02.954Z,17000
2018-12-11T11:10:02.494Z,20000
2018-12-11T11:15:03.079Z,3000
2018-12-11T11:20:02.470Z,23000
2018-12-11T11:25:03.252Z,22000
2018-12-11T11:30:02.969Z,4000
2018-12-11T11:35:02.444Z,22000
2018-12-11T11:40:03.000Z,20000
2018-12-11T11:45:03.386Z,15000
2018-12-11T11:50:02.757Z,14000
2018-12-11T11:55:03.123Z,7000
2018-12-11T12:00:02.508Z,6000
2018-12-11T12:05:03.184Z,7000
2018-12-11T12:10:02.629Z,8000
2018-12-11T12:15:03.159Z,4000
2018-12-11T12:20:02.691Z,3000
2018-12-11T12:25:03.123Z,3000
2018-12-11T12:30:02.653Z,3000
2018-12-11T12:35:03.219Z,3000
2018-12-11T12:40:02.829Z,3000
2018-12-11T12:45:03.368Z,3000
2018-12-11T12:50:02.889Z,2000
2018-12-11T12:55:03.574Z,2000
2018-12-11T13:00:03.038Z,2000
2018-12-11T13:05:02.654Z,2000
2018-12-11T13:10:02.906Z,1000
2018-12-11T13:15:07.430Z,1000
2018-12-11T13:20:02.939Z,1000
2018-12-11T13:25:03.426Z,1000
2018-12-11T13:30:02.855Z,1000
2018-12-11T13:35:03.490Z,1000
2018-12-11T13:40:03.042Z,2000
2018-12-11T13:45:02.657Z,3000
2018-12-11T13:50:03.380Z,3000
2018-12-11T13:55:02.778Z,2000
2018-12-11T14:00:03.192Z,1000
2018-12-11T14:05:03.035Z,1000
2018-12-11T14:10:02.846Z,1000
2018-12-11T14:15:02.391Z,1000
2018-12-11T15:01:05.803Z,538
2018-12-11T15:05:03.390Z,465
2018-12-11T15:10:02.810Z,390
2018-12-11T15:15:03.511Z,329
2018-12-11T15:20:03.023Z,264
2018-12-11T15:25:02.469Z,175
2018-12-11T15:30:02.858Z,84
2018-12-11T15:35:02.406Z,66
2018-12-11T15:40:02.932Z,52
2018-12-11T15:45:02.410Z,39
2018-12-11T15:50:02.964Z,21
2018-12-11T15:55:02.457Z,12
2018-12-11T16:00:03.006Z,5
2018-12-11T16:05:02.466Z,3
2018-12-11T16:10:02.974Z,3
2018-12-11T16:15:03.346Z,2
2018-12-11T16:20:02.872Z,1
2018-12-11T16:25:02.382Z,1
2018-12-11T16:30:02.868Z,1
2018-12-11T16:35:03.408Z,1
2018-12-11T16:40:05.011Z,1
2018-12-11T16:45:02.495Z,1
2018-12-11T16:50:02.984Z,1
2018-12-11T16:55:02.467Z,1
2018-12-11T17:00:02.937Z,1
2018-12-11T17:05:02.429Z,1
2018-12-11T17:10:02.891Z,1
2018-12-11T17:15:03.256Z,1
2018-12-11T17:20:02.719Z,1
2018-12-11T17:25:03.139Z,1
2018-12-11T17:30:02.552Z,1
2018-12-11T17:35:02.952Z,1
2018-12-11T17:40:02.718Z,1
2018-12-11T17:45:03.342Z,1
2018-12-11T17:50:02.824Z,1
2018-12-11T17:55:03.307Z,1
2018-12-11T18:00:02.718Z,1
2018-12-11T18:05:03.148Z,1
2018-12-11T18:10:02.673Z,1
2018-12-11T18:15:03.166Z,1
2018-12-11T18:20:02.817Z,1
2018-12-11T18:25:03.314Z,1
2018-12-11T18:30:02.754Z,1
2018-12-11T18:35:03.379Z,1
2018-12-11T18:40:02.842Z,1
2018-12-11T18:45:03.562Z,1
2018-12-11T18:50:03.196Z,1
2018-12-11T18:55:02.818Z,1
2018-12-11T19:00:02.391Z,1
2018-12-11T19:05:02.794Z,1
2018-12-11T19:10:03.417Z,1
2018-12-11T19:15:05.138Z,1
2018-12-11T19:20:02.769Z,1
2018-12-11T19:25:03.356Z,1
2018-12-11T19:30:02.839Z,1
2018-12-11T19:35:02.406Z,1
2018-12-11T19:40:02.591Z,1
2018-12-11T19:45:03.362Z,1
2018-12-11T19:50:02.957Z,1
2018-12-11T19:55:02.876Z,1
2018-12-11T20:00:02.312Z,1
2018-12-11T20:05:03.431Z,1
2018-12-11T20:10:02.511Z,1
2018-12-11T20:15:05.061Z,1
2018-12-11T20:20:02.893Z,1
2018-12-11T20:25:03.161Z,1
2018-12-11T20:30:03.232Z,1
2018-12-11T20:35:03.058Z,1
2018-12-11T20:40:03.291Z,1
2018-12-11T20:45:02.782Z,1
2018-12-11T20:50:02.787Z,1
2018-12-11T20:55:02.688Z,1
2018-12-11T21:00:03.440Z,1
2018-12-11T21:05:02.935Z,1
2018-12-11T21:10:02.527Z,1
2018-12-11T21:15:03.094Z,1
2018-12-11T21:20:02.540Z,1
2018-12-11T21:25:02.954Z,0
2018-12-11T21:30:02.403Z,1
2018-12-11T21:35:03.017Z,1
2018-12-11T21:40:02.562Z,1
2018-12-11T21:45:03.100Z,1
2018-12-11T21:50:02.659Z,1
2018-12-11T21:55:03.126Z,1
2018-12-11T22:00:02.511Z,1
2018-12-11T22:05:03.045Z,1
2018-12-11T22:10:02.519Z,1
2018-12-11T22:15:03.041Z,0
2018-12-11T22:20:02.487Z,1
2018-12-11T22:25:02.955Z,0
2018-12-11T22:30:02.561Z,1
2018-12-11T22:35:03.042Z,0
2018-12-11T22:40:02.565Z,1
2018-12-11T22:45:02.956Z,1
2018-12-11T22:50:02.397Z,1
2018-12-11T22:55:02.768Z,0
2018-12-11T23:00:03.248Z,1
2018-12-11T23:05:02.752Z,1
2018-12-11T23:10:03.274Z,1
2018-12-11T23:15:02.813Z,0
2018-12-11T23:20:03.358Z,1
2018-12-11T23:25:02.885Z,1
2018-12-11T23:30:03.429Z,1
2018-12-11T23:35:02.847Z,1
2018-12-11T23:40:02.485Z,1
2018-12-11T23:45:02.857Z,1
2018-12-11T23:50:03.339Z,0
2018-12-11T23:55:02.729Z,0
